sensor_id;sensor_type;location;lat;lon;timestamp;temperature;humidity
480;DHT22;226;48.606;9.096;2022-10-26T08:12:00;15.80;93.70
480;DHT22;226;48.606;9.096;2022-10-26T11:12:09;18.90;80.80
480;DHT22;226;48.606;9.096;2022-10-26T11:17:19;19.20;74.70
480;DHT22;226;48.606;9.096;2022-10-26T11:19:53;19.20;77.00
480;DHT22;226;48.606;9.096;2022-10-26T11:22:25;19.10;76.90
480;DHT22;226;48.606;9.096;2022-10-26T11:27:29;19.60;76.50
480;DHT22;226;48.606;9.096;2022-10-26T11:30:03;19.60;75.00
480;DHT22;226;48.606;9.096;2022-10-26T11:32:38;19.70;76.40
480;DHT22;226;48.606;9.096;2022-10-26T11:35:13;19.80;75.60
480;DHT22;226;48.606;9.096;2022-10-26T11:50:33;20.10;68.70
480;DHT22;226;48.606;9.096;2022-10-26T12:00:32;20.30;68.70
480;DHT22;226;48.606;9.096;2022-10-26T12:50:41;20.70;67.10
480;DHT22;226;48.606;9.096;2022-10-26T12:53:10;20.90;66.20
480;DHT22;226;48.606;9.096;2022-10-26T13:07:21;20.90;60.70
480;DHT22;226;48.606;9.096;2022-10-26T13:15:00;20.90;64.90
480;DHT22;226;48.606;9.096;2022-10-26T13:27:41;20.80;66.00
480;DHT22;226;48.606;9.096;2022-10-26T13:32:51;21.00;65.30
480;DHT22;226;48.606;9.096;2022-10-26T13:35:21;21.00;66.00
480;DHT22;226;48.606;9.096;2022-10-26T13:40:21;21.40;63.90
480;DHT22;226;48.606;9.096;2022-10-26T13:42:53;21.80;63.40
480;DHT22;226;48.606;9.096;2022-10-26T13:45:24;22.20;59.30
480;DHT22;226;48.606;9.096;2022-10-26T13:48:00;22.60;58.40
480;DHT22;226;48.606;9.096;2022-10-26T13:50:34;22.50;58.10
480;DHT22;226;48.606;9.096;2022-10-26T13:53:06;22.70;56.90
480;DHT22;226;48.606;9.096;2022-10-26T13:55:46;22.80;57.50
480;DHT22;226;48.606;9.096;2022-10-26T13:58:19;23.10;58.70
480;DHT22;226;48.606;9.096;2022-10-26T14:01:03;23.60;55.60
480;DHT22;226;48.606;9.096;2022-10-26T14:03:40;24.20;49.30
480;DHT22;226;48.606;9.096;2022-10-26T14:06:15;24.50;50.00
480;DHT22;226;48.606;9.096;2022-10-26T14:08:45;25.40;49.00
480;DHT22;226;48.606;9.096;2022-10-26T14:11:18;25.60;44.50
480;DHT22;226;48.606;9.096;2022-10-26T14:13:47;25.40;45.30
480;DHT22;226;48.606;9.096;2022-10-26T14:16:17;24.70;47.50
480;DHT22;226;48.606;9.096;2022-10-26T14:18:47;24.60;46.70
480;DHT22;226;48.606;9.096;2022-10-26T14:21:18;24.40;47.00
480;DHT22;226;48.606;9.096;2022-10-26T14:23:52;24.50;45.30
480;DHT22;226;48.606;9.096;2022-10-26T14:26:24;24.70;45.20
480;DHT22;226;48.606;9.096;2022-10-26T14:28:54;24.40;46.80
480;DHT22;226;48.606;9.096;2022-10-26T14:31:25;23.90;46.50
480;DHT22;226;48.606;9.096;2022-10-26T14:33:56;23.40;51.00
480;DHT22;226;48.606;9.096;2022-10-26T14:36:29;22.60;53.60
480;DHT22;226;48.606;9.096;2022-10-26T17:07:33;14.70;99.90
480;DHT22;226;48.606;9.096;2022-10-26T17:10:01;14.50;99.90
480;DHT22;226;48.606;9.096;2022-10-26T17:12:29;14.30;99.90
480;DHT22;226;48.606;9.096;2022-10-26T17:14:57;14.20;99.90
480;DHT22;226;48.606;9.096;2022-10-26T17:17:27;14.10;99.80
480;DHT22;226;48.606;9.096;2022-10-26T17:19:56;14.00;98.70
480;DHT22;226;48.606;9.096;2022-10-26T17:22:24;14.00;97.50
480;DHT22;226;48.606;9.096;2022-10-26T17:24:52;13.80;96.80
480;DHT22;226;48.606;9.096;2022-10-26T17:27:20;13.80;97.20
480;DHT22;226;48.606;9.096;2022-10-26T17:29:49;13.80;96.70
480;DHT22;226;48.606;9.096;2022-10-26T17:32:17;14.40;97.20
480;DHT22;226;48.606;9.096;2022-10-26T17:34:47;14.20;96.80
480;DHT22;226;48.606;9.096;2022-10-26T17:37:17;13.50;95.30
480;DHT22;226;48.606;9.096;2022-10-26T17:39:45;14.30;95.40
480;DHT22;226;48.606;9.096;2022-10-26T17:42:13;14.20;94.10
480;DHT22;226;48.606;9.096;2022-10-26T17:44:41;14.10;92.20
480;DHT22;226;48.606;9.096;2022-10-26T17:47:09;14.00;92.40
480;DHT22;226;48.606;9.096;2022-10-26T17:49:37;13.80;93.10
480;DHT22;226;48.606;9.096;2022-10-26T17:57:03;13.50;94.50
480;DHT22;226;48.606;9.096;2022-10-26T17:59:31;13.70;94.70
480;DHT22;226;48.606;9.096;2022-10-26T18:01:59;13.50;94.50
480;DHT22;226;48.606;9.096;2022-10-26T18:04:27;13.60;94.60
480;DHT22;226;48.606;9.096;2022-10-26T18:11:54;13.50;93.20
480;DHT22;226;48.606;9.096;2022-10-26T18:14:22;13.40;93.30
480;DHT22;226;48.606;9.096;2022-10-26T18:19:19;13.20;91.80
480;DHT22;226;48.606;9.096;2022-10-26T18:21:47;13.50;93.80
480;DHT22;226;48.606;9.096;2022-10-26T18:24:15;13.50;93.30
480;DHT22;226;48.606;9.096;2022-10-26T18:26:43;13.30;99.70
480;DHT22;226;48.606;9.096;2022-10-26T18:31:43;13.00;94.60
480;DHT22;226;48.606;9.096;2022-10-26T18:36:39;12.80;99.90
480;DHT22;226;48.606;9.096;2022-10-26T18:39:07;12.60;99.00
480;DHT22;226;48.606;9.096;2022-10-26T18:41:35;12.50;99.90
480;DHT22;226;48.606;9.096;2022-10-26T18:44:03;12.50;99.90
480;DHT22;226;48.606;9.096;2022-10-26T18:46:37;12.60;99.90
480;DHT22;226;48.606;9.096;2022-10-26T18:49:07;14.20;99.90
480;DHT22;226;48.606;9.096;2022-10-26T18:51:35;12.70;99.90
480;DHT22;226;48.606;9.096;2022-10-26T18:54:04;12.80;99.90
480;DHT22;226;48.606;9.096;2022-10-26T18:59:00;12.90;99.90
480;DHT22;226;48.606;9.096;2022-10-26T19:01:30;13.00;98.40
480;DHT22;226;48.606;9.096;2022-10-26T19:04:01;12.90;97.30
480;DHT22;226;48.606;9.096;2022-10-26T19:06:31;12.90;97.20
480;DHT22;226;48.606;9.096;2022-10-26T19:09:03;12.70;97.50
480;DHT22;226;48.606;9.096;2022-10-26T19:11:31;12.60;99.30
480;DHT22;226;48.606;9.096;2022-10-26T19:13:59;12.50;99.90
480;DHT22;226;48.606;9.096;2022-10-26T19:16:29;12.50;99.90
480;DHT22;226;48.606;9.096;2022-10-26T19:19:13;12.50;99.90
480;DHT22;226;48.606;9.096;2022-10-26T19:21:42;12.60;99.90
480;DHT22;226;48.606;9.096;2022-10-26T19:24:12;12.50;99.90
480;DHT22;226;48.606;9.096;2022-10-26T19:26:40;12.70;99.90
480;DHT22;226;48.606;9.096;2022-10-26T19:29:11;12.60;99.50
480;DHT22;226;48.606;9.096;2022-10-26T19:31:43;12.60;99.20
480;DHT22;226;48.606;9.096;2022-10-26T19:34:14;12.80;99.90
480;DHT22;226;48.606;9.096;2022-10-26T19:36:43;12.70;99.90
480;DHT22;226;48.606;9.096;2022-10-26T19:39:13;12.70;97.70
480;DHT22;226;48.606;9.096;2022-10-26T19:41:45;12.60;95.90
480;DHT22;226;48.606;9.096;2022-10-26T19:44:13;12.60;96.20
480;DHT22;226;48.606;9.096;2022-10-26T19:49:13;12.60;97.20
480;DHT22;226;48.606;9.096;2022-10-26T19:51:43;12.10;98.40
480;DHT22;226;48.606;9.096;2022-10-26T19:54:12;12.10;98.60
480;DHT22;226;48.606;9.096;2022-10-26T20:01:37;11.90;99.90
480;DHT22;226;48.606;9.096;2022-10-26T20:04:05;11.90;99.90
480;DHT22;226;48.606;9.096;2022-10-26T20:09:03;12.00;99.70
480;DHT22;226;48.606;9.096;2022-10-26T20:11:31;12.00;99.90
480;DHT22;226;48.606;9.096;2022-10-26T20:14:04;13.00;99.90
480;DHT22;226;48.606;9.096;2022-10-26T20:19:01;11.90;99.50
480;DHT22;226;48.606;9.096;2022-10-26T20:23:59;11.80;99.90
480;DHT22;226;48.606;9.096;2022-10-26T20:26:30;11.90;99.90
480;DHT22;226;48.606;9.096;2022-10-26T20:28:58;11.90;99.90
480;DHT22;226;48.606;9.096;2022-10-26T20:31:28;11.90;99.90
480;DHT22;226;48.606;9.096;2022-10-26T20:33:56;12.90;99.90
480;DHT22;226;48.606;9.096;2022-10-26T20:36:24;12.50;99.80
480;DHT22;226;48.606;9.096;2022-10-26T20:38:53;11.60;96.30
480;DHT22;226;48.606;9.096;2022-10-26T20:41:23;11.80;97.90
480;DHT22;226;48.606;9.096;2022-10-26T20:43:51;11.80;98.40
480;DHT22;226;48.606;9.096;2022-10-26T20:46:25;11.70;98.40
480;DHT22;226;48.606;9.096;2022-10-26T20:48:54;11.80;98.80
480;DHT22;226;48.606;9.096;2022-10-26T20:51:33;11.70;99.40
480;DHT22;226;48.606;9.096;2022-10-26T20:54:15;13.30;99.90
480;DHT22;226;48.606;9.096;2022-10-26T20:56:47;11.60;99.90
480;DHT22;226;48.606;9.096;2022-10-26T20:59:21;11.70;98.30
480;DHT22;226;48.606;9.096;2022-10-26T21:01:51;11.60;98.00
480;DHT22;226;48.606;9.096;2022-10-26T21:04:19;11.60;98.20
480;DHT22;226;48.606;9.096;2022-10-26T21:06:47;11.50;99.90
480;DHT22;226;48.606;9.096;2022-10-26T21:09:15;11.60;97.60
480;DHT22;226;48.606;9.096;2022-10-26T21:14:15;11.60;95.40
480;DHT22;226;48.606;9.096;2022-10-26T21:16:43;11.70;99.90
480;DHT22;226;48.606;9.096;2022-10-26T21:21:39;11.30;94.30
480;DHT22;226;48.606;9.096;2022-10-26T21:24:07;11.60;96.50
480;DHT22;226;48.606;9.096;2022-10-26T21:26:35;11.50;99.90
480;DHT22;226;48.606;9.096;2022-10-26T21:29:05;11.60;96.50
480;DHT22;226;48.606;9.096;2022-10-26T21:31:33;11.60;96.20
480;DHT22;226;48.606;9.096;2022-10-26T21:34:01;11.50;95.70
480;DHT22;226;48.606;9.096;2022-10-26T21:36:30;11.10;96.80
480;DHT22;226;48.606;9.096;2022-10-26T21:38:58;11.10;94.40
480;DHT22;226;48.606;9.096;2022-10-26T21:41:26;11.10;95.20
480;DHT22;226;48.606;9.096;2022-10-26T21:43:54;12.00;95.90
480;DHT22;226;48.606;9.096;2022-10-26T21:46:36;11.10;96.50
480;DHT22;226;48.606;9.096;2022-10-26T21:49:04;11.10;96.80
480;DHT22;226;48.606;9.096;2022-10-26T21:51:33;11.10;97.90
480;DHT22;226;48.606;9.096;2022-10-26T21:54:02;11.10;98.00
480;DHT22;226;48.606;9.096;2022-10-26T21:56:30;12.10;98.70
480;DHT22;226;48.606;9.096;2022-10-26T21:58:58;11.10;97.90
480;DHT22;226;48.606;9.096;2022-10-26T22:01:27;12.90;98.60
480;DHT22;226;48.606;9.096;2022-10-26T22:03:57;11.10;97.60
480;DHT22;226;48.606;9.096;2022-10-26T22:06:25;11.10;96.90
480;DHT22;226;48.606;9.096;2022-10-26T22:08:53;11.10;96.30
480;DHT22;226;48.606;9.096;2022-10-26T22:11:22;10.90;96.00
480;DHT22;226;48.606;9.096;2022-10-26T22:13:51;11.20;97.00
480;DHT22;226;48.606;9.096;2022-10-26T22:16:20;10.70;97.20
480;DHT22;226;48.606;9.096;2022-10-26T22:18:50;10.70;97.60
480;DHT22;226;48.606;9.096;2022-10-26T22:21:20;10.60;98.10
480;DHT22;226;48.606;9.096;2022-10-26T22:23:48;11.10;98.60
480;DHT22;226;48.606;9.096;2022-10-26T22:26:18;10.70;98.30
480;DHT22;226;48.606;9.096;2022-10-26T22:28:48;10.70;98.70
480;DHT22;226;48.606;9.096;2022-10-26T22:31:18;12.20;99.30
480;DHT22;226;48.606;9.096;2022-10-26T22:33:50;11.20;98.60
480;DHT22;226;48.606;9.096;2022-10-26T22:36:20;10.60;97.80
480;DHT22;226;48.606;9.096;2022-10-26T22:38:49;10.80;97.40
480;DHT22;226;48.606;9.096;2022-10-26T22:41:18;12.00;96.80
480;DHT22;226;48.606;9.096;2022-10-26T22:43:47;11.20;96.00
480;DHT22;226;48.606;9.096;2022-10-26T22:46:18;11.30;95.30
480;DHT22;226;48.606;9.096;2022-10-26T22:48:46;10.80;94.80
480;DHT22;226;48.606;9.096;2022-10-26T22:51:17;10.90;94.70
480;DHT22;226;48.606;9.096;2022-10-26T22:53:50;10.60;95.10
480;DHT22;226;48.606;9.096;2022-10-26T22:56:18;10.50;95.20
480;DHT22;226;48.606;9.096;2022-10-26T22:58:46;11.10;99.70
480;DHT22;226;48.606;9.096;2022-10-26T23:01:16;10.30;99.90
480;DHT22;226;48.606;9.096;2022-10-26T23:03:45;10.60;99.90
480;DHT22;226;48.606;9.096;2022-10-26T23:06:14;10.10;99.90
480;DHT22;226;48.606;9.096;2022-10-26T23:08:43;10.10;98.10
480;DHT22;226;48.606;9.096;2022-10-26T23:11:14;10.60;98.70
480;DHT22;226;48.606;9.096;2022-10-26T23:13:43;10.20;99.20
480;DHT22;226;48.606;9.096;2022-10-26T23:16:12;10.00;99.90
480;DHT22;226;48.606;9.096;2022-10-26T23:18:41;10.20;99.90
480;DHT22;226;48.606;9.096;2022-10-26T23:21:10;11.00;99.80
480;DHT22;226;48.606;9.096;2022-10-26T23:23:39;10.20;99.10
480;DHT22;226;48.606;9.096;2022-10-26T23:26:08;11.20;99.00
480;DHT22;226;48.606;9.096;2022-10-26T23:28:39;10.30;97.60
480;DHT22;226;48.606;9.096;2022-10-26T23:31:13;11.20;98.10
480;DHT22;226;48.606;9.096;2022-10-26T23:33:41;10.30;97.20
480;DHT22;226;48.606;9.096;2022-10-26T23:36:09;11.00;97.60
480;DHT22;226;48.606;9.096;2022-10-26T23:41:06;10.30;94.50
480;DHT22;226;48.606;9.096;2022-10-26T23:43:40;10.30;96.00
480;DHT22;226;48.606;9.096;2022-10-26T23:46:08;11.30;96.10
480;DHT22;226;48.606;9.096;2022-10-26T23:48:36;10.30;95.00
480;DHT22;226;48.606;9.096;2022-10-26T23:51:04;10.30;95.30
480;DHT22;226;48.606;9.096;2022-10-26T23:53:32;11.60;96.10
480;DHT22;226;48.606;9.096;2022-10-26T23:56:00;9.90;96.40
480;DHT22;226;48.606;9.096;2022-10-26T23:58:28;9.80;98.30
